LYTV/TIV METAR and TAF weather

Enter ICAO airport designator
Station Type Date Time Source
LYTV METAR 2021/01/27 13:30 UTC NOAA

LYTV 271330Z 32016KT CAVOK 09/M11 Q1013 NOSIG


Station Type Date Time Source
LYTV Decoded METAR 2021/01/27 13:30 UTC NOAA

Tivat, Serbia and Montenegro (LYTV) 42-24N 018-44E 5M
Jan 27, 2021 - 08:30 AM EST / 2021.01.27 1330 UTC
Wind: from the NW (320 degrees) at 18 MPH (16 KT):0
Visibility: greater than 7 mile(s):0
Temperature: 48 F (9 C)
Dew Point: 12 F (-11 C)
Relative Humidity: 23%
Pressure (altimeter): 29.91 in. Hg (1013 hPa)
ob: LYTV 271330Z 32016KT CAVOK 09/M11 Q1013 NOSIG
cycle: 13

Station Type Date Time Source
LYTV TAF 2021/01/27 12:24 UTC NOAA

TAF LYTV 271100Z 2712/2812 35010KT CAVOK TX10/2713Z TNM02/2805Z

Example: see airport list